Time;durP1;ratioP1;P1;durP2;ratioP2;P2;SDS_P1;SDS_P2;PMS_P1;PMS_P2;Temp;Humidity;BMP_temperature;BMP_pressure;BME280_temperature;BME280_humidity;BME280_pressure;Samples;Min_cycle;Max_cycle;Signal;HPM_P1;HPM_P2
2021/01/03 00:02:00;;;;;;;16.27;11.12;;;;;;;-0.11;96.90;99816.56;1776007;80;21160;-63
2021/01/03 00:04:28;;;;;;;13.95;9.73;;;;;;;-0.14;97.00;99822.05;1761898;81;21160;-63
2021/01/03 00:06:56;;;;;;;12.25;9.40;;;;;;;-0.17;96.92;99818.16;1775863;80;21380;-62
2021/01/03 00:09:24;;;;;;;12.00;9.00;;;;;;;-0.19;96.97;99824.52;1756508;81;21522;-62
2021/01/03 00:11:52;;;;;;;11.75;9.25;;;;;;;-0.21;97.11;99822.36;1755646;81;21061;-63
2021/01/03 00:14:21;;;;;;;12.45;8.88;;;;;;;-0.20;97.21;99828.33;1788012;80;21578;-62
2021/01/03 00:16:54;;;;;;;11.53;8.13;;;;;;;-0.21;97.23;99824.06;1787773;80;21121;-61
2021/01/03 00:19:21;;;;;;;9.80;7.78;;;;;;;-0.23;97.17;99826.98;1744315;80;21510;-62
2021/01/03 00:21:50;;;;;;;11.18;8.08;;;;;;;-0.23;97.17;99833.37;1787700;79;21987;-62
2021/01/03 00:24:18;;;;;;;13.62;8.73;;;;;;;-0.25;97.26;99834.63;1787792;80;21121;-62
2021/01/03 00:26:46;;;;;;;12.98;9.43;;;;;;;-0.25;97.20;99832.08;1787745;80;21045;-62
2021/01/03 00:29:18;;;;;;;13.32;9.45;;;;;;;-0.26;97.23;99825.67;1787890;80;21046;-62
2021/01/03 00:31:50;;;;;;;10.05;8.03;;;;;;;-0.28;97.20;99825.65;1787893;80;22241;-63
2021/01/03 00:34:19;;;;;;;10.10;8.05;;;;;;;-0.32;97.12;99826.41;1787748;80;21157;-62
2021/01/03 00:36:47;;;;;;;10.03;8.28;;;;;;;-0.35;97.20;99833.62;1787828;80;21061;-61
2021/01/03 00:39:15;;;;;;;10.53;8.13;;;;;;;-0.36;97.16;99826.80;1787763;80;21117;-61
2021/01/03 00:41:48;;;;;;;11.78;8.53;;;;;;;-0.39;97.23;99819.06;1787857;80;21050;-61
2021/01/03 00:44:18;;;;;;;12.73;9.60;;;;;;;-0.39;97.26;99818.20;1785173;80;23707;-62
2021/01/03 00:46:46;;;;;;;21.00;12.47;;;;;;;-0.40;97.31;99813.51;1787775;80;21073;-62
2021/01/03 00:49:14;;;;;;;14.87;10.18;;;;;;;-0.42;97.30;99813.91;1787911;80;21045;-62
2021/01/03 00:51:42;;;;;;;18.07;11.75;;;;;;;-0.43;97.24;99814.75;1787648;79;21089;-62
2021/01/03 00:54:10;;;;;;;15.28;10.18;;;;;;;-0.43;97.21;99816.44;1787766;80;21139;-62
2021/01/03 00:56:38;;;;;;;14.53;9.80;;;;;;;-0.45;97.26;99817.70;1787594;80;21374;-62
2021/01/03 00:59:06;;;;;;;12.73;9.80;;;;;;;-0.45;97.21;99820.67;1787898;79;21073;-61
2021/01/03 01:01:33;;;;;;;14.30;10.50;;;;;;;-0.47;97.18;99824.87;1787779;80;21061;-62
2021/01/03 01:04:01;;;;;;;19.42;12.60;;;;;;;-0.47;97.17;99824.45;1787800;79;21131;-62
2021/01/03 01:06:29;;;;;;;14.07;9.18;;;;;;;-0.50;97.11;99815.47;1787853;80;21113;-62
2021/01/03 01:08:57;;;;;;;11.25;8.58;;;;;;;-0.50;97.01;99817.16;1790358;79;21443;-61
2021/01/03 01:11:25;;;;;;;13.08;9.20;;;;;;;-0.53;96.87;99815.39;1819853;78;21076;-61
2021/01/03 01:13:53;;;;;;;13.38;9.38;;;;;;;-0.57;96.85;99819.60;1819656;78;21296;-61
2021/01/03 01:16:21;;;;;;;18.67;11.85;;;;;;;-0.58;96.87;99814.05;1819886;78;21147;-61
2021/01/03 01:18:50;;;;;;;18.37;11.70;;;;;;;-0.59;96.85;99811.48;1733001;82;22336;-61
2021/01/03 01:21:18;;;;;;;20.32;11.97;;;;;;;-0.61;96.82;99805.46;1811578;79;21190;-61
2021/01/03 01:23:46;;;;;;;19.60;12.10;;;;;;;-0.63;96.84;99812.24;1811182;79;21086;-62
2021/01/03 01:26:14;;;;;;;17.57;11.10;;;;;;;-0.65;96.87;99806.25;1811479;79;21064;-61
2021/01/03 01:28:42;;;;;;;17.48;11.85;;;;;;;-0.65;96.91;99819.02;1811434;79;21050;-61
2021/01/03 01:31:10;;;;;;;18.30;11.70;;;;;;;-0.66;96.89;99813.48;1811613;79;21617;-61
2021/01/03 01:33:38;;;;;;;19.37;12.00;;;;;;;-0.66;96.95;99817.30;1811285;79;21204;-62
2021/01/03 01:36:07;;;;;;;15.95;11.75;;;;;;;-0.67;97.01;99815.17;1811246;79;21089;-61
2021/01/03 01:38:35;;;;;;;17.12;12.05;;;;;;;-0.67;97.03;99813.89;1811189;79;21497;-62
2021/01/03 01:41:04;;;;;;;18.02;12.05;;;;;;;-0.67;97.12;99815.59;1811500;79;21487;-61
2021/01/03 01:43:32;;;;;;;16.42;11.80;;;;;;;-0.68;97.24;99809.63;1811363;79;21496;-65
2021/01/03 01:46:00;;;;;;;17.52;11.25;;;;;;;-0.68;97.24;99799.80;1811520;79;21119;-61
2021/01/03 01:48:35;;;;;;;14.03;10.55;;;;;;;-0.69;97.20;99797.66;1811359;79;21148;-61
2021/01/03 01:51:18;;;;;;;15.68;11.12;;;;;;;-0.70;97.15;99797.64;1811555;79;21042;-61
2021/01/03 01:53:54;;;;;;;14.15;10.95;;;;;;;-0.70;97.15;99797.64;1811048;79;21061;-63
2021/01/03 01:56:39;;;;;;;16.62;11.88;;;;;;;-0.70;97.20;99793.81;1811469;79;21060;-62
2021/01/03 01:59:18;;;;;;;16.45;11.28;;;;;;;-0.72;97.20;99795.06;1811523;79;21200;-62
2021/01/03 02:02:09;;;;;;;14.87;11.28;;;;;;;-0.73;97.22;99798.88;1811356;79;21053;-63
2021/01/03 02:05:04;;;;;;;16.10;11.65;;;;;;;-0.74;97.15;99801.84;1811252;79;21129;-63
2021/01/03 02:07:37;;;;;;;16.95;11.35;;;;;;;-0.79;97.11;99795.78;1811359;79;21070;-62
2021/01/03 02:10:26;;;;;;;15.05;11.33;;;;;;;-0.81;96.98;99796.59;1815506;78;21026;-63
2021/01/03 02:13:09;;;;;;;14.63;10.98;;;;;;;-0.84;96.96;99799.93;1819996;78;21850;-63
2021/01/03 02:15:37;;;;;;;14.93;11.12;;;;;;;-0.85;97.09;99802.90;1819825;78;21081;-63
2021/01/03 02:18:07;;;;;;;16.50;11.55;;;;;;;-0.87;97.08;99790.95;1819994;78;21163;-63
2021/01/03 02:21:06;;;;;;;15.88;11.00;;;;;;;-0.90;96.96;99788.36;1820237;78;21509;-65
2021/01/03 02:23:48;;;;;;;15.65;11.60;;;;;;;-0.93;96.97;99790.41;1820199;78;21061;-62
2021/01/03 02:26:18;;;;;;;14.30;10.55;;;;;;;-0.94;97.13;99781.45;1820242;78;21478;-62
2021/01/03 02:28:46;;;;;;;16.10;10.78;;;;;;;-0.96;97.21;99776.75;1820016;78;21569;-62
2021/01/03 02:31:19;;;;;;;13.83;10.70;;;;;;;-0.98;97.25;99766.91;1820164;78;21089;-62
2021/01/03 02:33:48;;;;;;;18.48;10.72;;;;;;;-1.00;97.18;99766.88;1820072;78;21053;-62
2021/01/03 02:36:27;;;;;;;14.30;10.93;;;;;;;-1.00;97.30;99767.30;1820228;78;21108;-63
2021/01/03 02:39:13;;;;;;;15.70;11.53;;;;;;;-1.01;97.37;99762.61;1820097;78;21360;-62
2021/01/03 02:41:41;;;;;;;17.00;12.28;;;;;;;-1.02;97.42;99756.21;1793651;78;21160;-63
2021/01/03 02:44:09;;;;;;;18.85;11.85;;;;;;;-1.03;97.49;99756.63;1743509;82;21149;-62
2021/01/03 02:46:37;;;;;;;16.05;11.63;;;;;;;-1.04;97.52;99747.67;1761802;81;21167;-64
2021/01/03 02:49:06;;;;;;;15.48;11.10;;;;;;;-1.06;97.49;99741.66;1775884;80;21065;-63
2021/01/03 02:51:36;;;;;;;17.57;12.85;;;;;;;-1.06;97.55;99742.52;1761831;81;21391;-62
2021/01/03 02:54:07;;;;;;;33.13;17.30;;;;;;;-1.08;97.58;99737.81;1775926;80;21184;-63
2021/01/03 02:56:34;;;;;;;43.83;19.87;;;;;;;-1.09;97.39;99734.82;1761853;81;21057;-62
2021/01/03 02:59:03;;;;;;;41.10;18.80;;;;;;;-1.10;97.47;99729.70;1776038;80;21148;-62
2021/01/03 03:01:31;;;;;;;38.45;20.25;;;;;;;-1.12;97.64;99728.40;1761806;81;21132;-62
2021/01/03 03:03:59;;;;;;;29.87;17.55;;;;;;;-1.13;97.73;99727.54;1776040;80;21348;-62
2021/01/03 03:06:27;;;;;;;18.35;12.28;;;;;;;-1.12;97.81;99728.40;1761762;81;21633;-62
2021/01/03 03:08:55;;;;;;;15.08;10.93;;;;;;;-1.12;97.86;99726.70;1776016;80;21054;-62
2021/01/03 03:11:23;;;;;;;12.47;9.40;;;;;;;-1.11;97.98;99723.73;1751875;81;21081;-62
2021/01/03 03:13:51;;;;;;;13.40;9.38;;;;;;;-1.10;97.99;99725.87;1755605;81;21096;-62
2021/01/03 03:16:19;;;;;;;14.73;11.10;;;;;;;-1.11;98.09;99726.28;1755662;81;21457;-62
2021/01/03 03:18:47;;;;;;;14.40;11.30;;;;;;;-1.11;98.15;99731.39;1787830;80;21483;-62
2021/01/03 03:21:19;;;;;;;15.20;10.85;;;;;;;-1.12;98.12;99734.77;1787860;80;21073;-62
2021/01/03 03:23:47;;;;;;;14.33;11.15;;;;;;;-1.14;98.14;99725.79;1787801;80;21152;-62
2021/01/03 03:26:15;;;;;;;12.70;9.95;;;;;;;-1.14;98.27;99720.69;1787975;80;21058;-61
2021/01/03 03:28:43;;;;;;;13.10;9.98;;;;;;;-1.14;98.28;99721.96;1787752;80;21193;-62
2021/01/03 03:31:11;;;;;;;14.15;11.10;;;;;;;-1.12;98.42;99721.60;1787637;80;21156;-62
2021/01/03 03:33:39;;;;;;;16.40;12.00;;;;;;;-1.12;98.53;99716.50;1787843;80;21093;-62
2021/01/03 03:36:07;;;;;;;14.35;10.72;;;;;;;-1.11;98.55;99717.36;1787777;80;21562;-62
2021/01/03 03:38:35;;;;;;;13.80;10.25;;;;;;;-1.12;98.66;99719.05;1787940;80;21171;-62
2021/01/03 03:41:04;;;;;;;14.33;10.78;;;;;;;-1.12;98.61;99724.16;1787788;80;21593;-62
2021/01/03 03:43:31;;;;;;;14.30;10.00;;;;;;;-1.13;98.58;99719.03;1787844;80;21136;-62
2021/01/03 03:45:59;;;;;;;13.72;10.48;;;;;;;-1.14;98.49;99720.69;1787625;80;21539;-62
2021/01/03 03:48:27;;;;;;;13.43;10.20;;;;;;;-1.16;98.53;99717.67;1787887;80;22063;-62
2021/01/03 03:50:55;;;;;;;12.70;9.60;;;;;;;-1.18;98.63;99717.66;1787831;80;21069;-62
2021/01/03 03:53:24;;;;;;;12.95;10.10;;;;;;;-1.19;98.67;99718.91;1787670;80;21506;-62
2021/01/03 03:55:53;;;;;;;13.43;10.35;;;;;;;-1.21;98.68;99714.16;1787369;79;21081;-63
2021/01/03 03:58:23;;;;;;;15.03;10.45;;;;;;;-1.20;98.83;99717.19;1787728;80;21057;-61
2021/01/03 04:00:52;;;;;;;14.83;10.53;;;;;;;-1.19;98.97;99716.36;1787745;80;21136;-62
2021/01/03 04:03:20;;;;;;;15.90;11.88;;;;;;;-1.16;99.09;99710.02;1768630;80;21124;-62
2021/01/03 04:05:48;;;;;;;15.40;11.30;;;;;;;-1.16;99.10;99709.60;1787669;80;21176;-62
2021/01/03 04:08:16;;;;;;;13.10;10.25;;;;;;;-1.11;99.18;99708.42;1787755;80;21129;-62
2021/01/03 04:10:44;;;;;;;15.25;11.15;;;;;;;-1.07;99.28;99705.08;1801293;79;21053;-63
2021/01/03 04:13:12;;;;;;;20.48;12.00;;;;;;;-1.02;99.35;99707.73;1817007;79;21101;-61
2021/01/03 04:15:40;;;;;;;15.30;11.10;;;;;;;-1.01;99.28;99702.65;1817309;79;21128;-61
2021/01/03 04:18:08;;;;;;;14.78;11.03;;;;;;;-0.98;99.22;99714.20;1817213;78;21353;-61
2021/01/03 04:20:36;;;;;;;20.37;13.35;;;;;;;-0.97;99.06;99714.64;1817285;79;21089;-62
2021/01/03 04:23:06;;;;;;;23.30;14.65;;;;;;;-0.98;98.91;99714.59;1817103;79;21116;-61
2021/01/03 04:25:35;;;;;;;23.62;15.23;;;;;;;-1.00;98.89;99718.40;1817185;79;21097;-61
2021/01/03 04:28:04;;;;;;;21.70;14.47;;;;;;;-1.02;98.73;99712.83;1817185;79;21176;-61
2021/01/03 04:30:32;;;;;;;17.62;12.53;;;;;;;-1.05;98.75;99712.37;1817208;79;21431;-61
2021/01/03 04:32:59;;;;;;;18.50;12.65;;;;;;;-1.05;98.81;99715.34;1825334;77;22060;-62
2021/01/03 04:35:28;;;;;;;20.12;13.25;;;;;;;-1.09;98.80;99715.69;1823435;78;21146;-61
2021/01/03 04:37:56;;;;;;;19.23;12.68;;;;;;;-1.12;98.84;99706.30;1823876;78;21048;-61
2021/01/03 04:40:27;;;;;;;17.02;11.75;;;;;;;-1.15;98.94;99706.22;1823965;78;21061;-62
2021/01/03 04:42:59;;;;;;;15.95;11.85;;;;;;;-1.15;99.03;99698.98;1823723;78;21361;-62
2021/01/03 04:45:37;;;;;;;14.45;10.63;;;;;;;-1.17;99.17;99700.23;1823665;78;21486;-62
2021/01/03 04:48:10;;;;;;;14.03;10.48;;;;;;;-1.17;99.24;99702.78;1823701;78;21155;-62
2021/01/03 04:51:15;;;;;;;14.80;10.53;;;;;;;-1.17;99.34;99709.58;1823627;78;21208;-62
2021/01/03 04:54:12;;;;;;;13.70;10.45;;;;;;;-1.16;99.51;99706.20;1823805;78;21084;-63
2021/01/03 04:56:46;;;;;;;13.10;10.68;;;;;;;-1.13;99.89;99697.34;1824008;78;21192;-62
2021/01/03 04:59:34;;;;;;;14.78;11.75;;;;;;;-1.08;100.00;99698.27;1823857;78;21060;-61
2021/01/03 05:02:39;;;;;;;15.55;11.93;;;;;;;-1.07;100.00;99693.60;1823726;78;21104;-62
2021/01/03 05:05:34;;;;;;;16.23;11.00;;;;;;;-1.03;100.00;99695.81;1823674;78;21148;-64
2021/01/03 05:08:49;;;;;;;15.85;11.63;;;;;;;-1.02;100.00;99697.11;1823574;78;21147;-63
2021/01/03 05:11:21;;;;;;;16.05;10.93;;;;;;;-1.02;100.00;99705.18;1813426;78;21503;-62
2021/01/03 05:14:22;;;;;;;14.35;10.88;;;;;;;-1.03;100.00;99714.53;1804767;79;21109;-63
2021/01/03 05:16:57;;;;;;;17.57;12.28;;;;;;;-1.02;100.00;99723.90;1804956;79;21108;-64
2021/01/03 05:19:25;;;;;;;15.53;11.30;;;;;;;-1.04;100.00;99723.02;1804983;79;21073;-62
2021/01/03 05:21:56;;;;;;;12.65;10.10;;;;;;;-1.05;100.00;99726.41;1804784;79;21062;-63
2021/01/03 05:24:27;;;;;;;15.45;11.80;;;;;;;-1.06;100.00;99728.91;1804947;79;21364;-63
2021/01/03 05:26:55;;;;;;;15.25;11.95;;;;;;;-1.09;100.00;99725.89;1804737;79;21184;-63
2021/01/03 05:29:26;;;;;;;14.83;11.90;;;;;;;-1.11;100.00;99723.73;1804917;79;21042;-62
2021/01/03 05:32:01;;;;;;;14.85;11.35;;;;;;;-1.10;100.00;99724.59;1804496;79;21045;-63
2021/01/03 05:34:41;;;;;;;15.57;12.43;;;;;;;-1.11;100.00;99718.63;1805400;79;21561;-63
2021/01/03 05:37:16;;;;;;;17.85;12.45;;;;;;;-1.11;100.00;99714.80;1804945;79;22090;-62
2021/01/03 05:39:45;;;;;;;22.52;15.25;;;;;;;-1.10;100.00;99713.97;1804836;79;21054;-62
2021/01/03 05:42:30;;;;;;;22.65;15.15;;;;;;;-1.09;100.00;99705.90;1805047;79;21490;-62
2021/01/03 05:45:21;;;;;;;22.25;13.78;;;;;;;-1.06;100.00;99700.84;1804717;79;21144;-63
2021/01/03 05:48:01;;;;;;;21.02;14.47;;;;;;;-1.04;100.00;99701.33;1804425;79;21187;-65
2021/01/03 05:50:35;;;;;;;19.62;13.38;;;;;;;-1.02;100.00;99699.66;1804683;79;21360;-62
2021/01/03 05:53:28;;;;;;;18.92;13.08;;;;;;;-1.02;100.00;99688.17;1804920;78;21569;-62
2021/01/03 05:56:02;;;;;;;19.37;12.95;;;;;;;-1.02;100.00;99693.28;1804715;79;21134;-64
2021/01/03 05:58:36;;;;;;;18.57;13.20;;;;;;;-1.02;100.00;99697.11;1805035;79;21534;-64
2021/01/03 06:01:21;;;;;;;15.78;12.10;;;;;;;-1.02;100.00;99697.11;1804889;79;21491;-64
2021/01/03 06:04:09;;;;;;;18.42;12.78;;;;;;;-1.01;100.00;99695.41;1805026;79;21384;-64
2021/01/03 06:06:47;;;;;;;22.27;14.93;;;;;;;-1.00;100.00;99692.02;1804535;79;37505;-63
2021/01/03 06:09:16;;;;;;;21.77;14.43;;;;;;;-0.98;100.00;99695.06;1804930;79;21125;-63
2021/01/03 06:12:05;;;;;;;22.20;15.08;;;;;;;-0.96;100.00;99698.50;1787843;78;21501;-62
2021/01/03 06:14:34;;;;;;;30.12;18.57;;;;;;;-0.92;100.00;99704.50;1824192;78;21085;-62
2021/01/03 06:17:18;;;;;;;66.28;31.25;;;;;;;-0.89;100.00;99699.05;1823849;78;21379;-62
2021/01/03 06:19:51;;;;;;;33.65;22.30;;;;;;;-0.84;100.00;99691.03;1823985;78;21077;-62
2021/01/03 06:22:48;;;;;;;34.10;24.60;;;;;;;-0.78;100.00;99685.60;1824041;78;21096;-63
2021/01/03 06:25:57;;;;;;;36.83;28.20;;;;;;;-0.71;100.00;99688.28;1824274;78;21041;-62
2021/01/03 06:28:36;;;;;;;34.10;24.43;;;;;;;-0.65;100.00;99690.09;1824164;78;21493;-62
2021/01/03 06:31:46;;;;;;;27.55;19.12;;;;;;;-0.59;100.00;99696.58;1823637;78;21142;-63
2021/01/03 06:34:16;;;;;;;30.30;20.57;;;;;;;-0.52;100.00;99704.78;1823825;78;21104;-63
2021/01/03 06:37:08;;;;;;;36.68;24.12;;;;;;;-0.46;100.00;99706.13;1824039;78;21466;-63
2021/01/03 06:39:42;;;;;;;41.35;24.95;;;;;;;-0.44;100.00;99701.93;1824123;78;21044;-61
2021/01/03 06:42:49;;;;;;;35.40;22.75;;;;;;;-0.43;100.00;99707.89;1824077;78;21132;-62
2021/01/03 06:45:52;;;;;;;37.00;22.22;;;;;;;-0.42;100.00;99709.61;1710561;81;21392;-61
2021/01/03 06:48:56;;;;;;;30.70;19.27;;;;;;;-0.40;100.00;99712.62;1765388;81;21129;-62
2021/01/03 06:51:53;;;;;;;35.60;19.90;;;;;;;-0.39;100.00;99707.95;1784718;80;21519;-63
2021/01/03 06:54:38;;;;;;;34.20;19.17;;;;;;;-0.38;100.00;99705.86;1785184;80;21102;-62
2021/01/03 06:57:29;;;;;;;31.85;18.35;;;;;;;-0.37;100.00;99716.52;1784855;80;22037;-62
2021/01/03 07:00:24;;;;;;;27.93;17.65;;;;;;;-0.35;100.00;99716.11;1756887;80;21373;-62
2021/01/03 07:03:21;;;;;;;31.97;19.00;;;;;;;-0.33;100.00;99716.13;1784893;80;21102;-63
2021/01/03 07:06:00;;;;;;;34.78;20.95;;;;;;;-0.31;100.00;99722.97;1760968;80;21141;-64
2021/01/03 07:08:44;;;;;;;37.03;20.70;;;;;;;-0.28;100.00;99720.91;1784697;80;21791;-63
2021/01/03 07:11:39;;;;;;;33.95;19.40;;;;;;;-0.25;100.00;99722.22;1779803;80;21070;-64
2021/01/03 07:14:21;;;;;;;38.65;21.33;;;;;;;-0.21;100.00;99721.44;1777590;80;21380;-61
2021/01/03 07:17:00;;;;;;;36.10;20.55;;;;;;;-0.20;100.00;99715.91;1777738;80;21169;-62
2021/01/03 07:19:42;;;;;;;39.58;20.85;;;;;;;-0.19;100.00;99710.82;1777592;80;21140;-63
2021/01/03 07:22:14;;;;;;;34.15;21.27;;;;;;;-0.17;100.00;99721.05;1777534;79;21129;-62
2021/01/03 07:24:54;;;;;;;37.55;21.97;;;;;;;-0.17;100.00;99721.05;1728042;83;21063;-62
2021/01/03 07:27:35;;;;;;;31.97;19.53;;;;;;;-0.16;100.00;99716.38;1727898;83;21244;-62
2021/01/03 07:30:09;;;;;;;33.02;20.08;;;;;;;-0.13;100.00;99719.00;1727905;83;21095;-62
2021/01/03 07:32:45;;;;;;;30.90;19.57;;;;;;;-0.13;100.00;99719.00;1727964;82;21078;-62
2021/01/03 07:35:24;;;;;;;26.65;16.75;;;;;;;-0.11;100.00;99727.13;1727884;83;21178;-62
2021/01/03 07:37:55;;;;;;;30.25;19.82;;;;;;;-0.09;100.00;99728.42;1727987;83;21079;-62
2021/01/03 07:40:24;;;;;;;31.37;19.77;;;;;;;-0.05;100.00;99727.64;1701102;83;21285;-62
2021/01/03 07:43:01;;;;;;;35.20;22.55;;;;;;;-0.04;100.00;99726.37;1727844;82;21111;-62
2021/01/03 07:45:40;;;;;;;31.37;19.37;;;;;;;-0.03;100.00;99720.84;1728028;83;21150;-62
2021/01/03 07:48:33;;;;;;;33.53;20.55;;;;;;;-0.01;100.00;99725.55;1727884;83;21615;-62
2021/01/03 07:51:01;;;;;;;31.40;19.92;;;;;;;0.00;100.00;99724.75;1727964;83;21165;-62
2021/01/03 07:53:36;;;;;;;35.13;20.95;;;;;;;0.03;100.00;99727.33;1728065;82;21223;-62
2021/01/03 07:56:23;;;;;;;37.17;22.45;;;;;;;0.06;100.00;99721.39;1727812;83;21082;-62
2021/01/03 07:58:56;;;;;;;32.35;19.57;;;;;;;0.09;100.00;99722.73;1705572;83;21176;-62
2021/01/03 08:01:31;;;;;;;26.73;16.65;;;;;;;0.09;100.00;99727.42;1728006;83;21496;-61
2021/01/03 08:04:12;;;;;;;27.48;17.82;;;;;;;0.08;100.00;99721.88;1728048;82;21631;-63
2021/01/03 08:06:40;;;;;;;25.10;16.75;;;;;;;0.08;100.00;99720.59;1704677;83;21390;-62
2021/01/03 08:09:08;;;;;;;30.32;17.77;;;;;;;0.06;100.00;99723.53;1727804;83;21173;-64
2021/01/03 08:11:39;;;;;;;29.20;18.77;;;;;;;0.03;100.00;99732.44;1727755;80;21674;-63
2021/01/03 08:14:12;;;;;;;26.00;17.52;;;;;;;0.02;100.00;99738.39;1727982;82;21059;-63
2021/01/03 08:16:40;;;;;;;28.98;17.32;;;;;;;0.02;100.00;99740.95;1727850;82;21142;-63
2021/01/03 08:19:09;;;;;;;25.45;16.55;;;;;;;0.05;100.00;99742.68;1727827;83;21325;-63
2021/01/03 08:21:40;;;;;;;27.65;17.20;;;;;;;0.06;100.00;99743.12;1727974;83;21098;-62
2021/01/03 08:24:15;;;;;;;25.75;17.07;;;;;;;0.08;100.00;99746.16;1727831;83;21193;-63
2021/01/03 08:26:51;;;;;;;28.10;18.05;;;;;;;0.12;100.00;99745.77;1728076;83;21067;-62
2021/01/03 08:29:30;;;;;;;25.27;17.30;;;;;;;0.13;100.00;99749.63;1727679;83;21225;-62
2021/01/03 08:32:00;;;;;;;27.22;17.17;;;;;;;0.19;100.00;99763.77;1728001;82;21178;-62
2021/01/03 08:34:34;;;;;;;27.13;18.02;;;;;;;0.22;100.00;99769.34;1728065;83;21202;-62
2021/01/03 08:37:13;;;;;;;26.95;17.40;;;;;;;0.21;100.00;99765.92;1727969;83;21131;-63
2021/01/03 08:39:50;;;;;;;30.92;20.12;;;;;;;0.29;100.00;99763.48;1847315;76;28032;-63
2021/01/03 08:42:23;;;;;;;30.12;20.32;;;;;;;0.28;100.00;99765.17;1817865;79;21068;-63
2021/01/03 08:44:53;;;;;;;30.50;19.02;;;;;;;0.32;100.00;99767.80;1817886;79;21361;-64
2021/01/03 08:47:25;;;;;;;29.67;18.42;;;;;;;0.35;100.00;99769.10;1817974;79;21137;-63
2021/01/03 08:50:22;;;;;;;28.17;18.12;;;;;;;0.36;100.00;99756.75;1816060;79;21116;-63
2021/01/03 08:52:59;;;;;;;28.95;18.60;;;;;;;0.38;100.00;99753.78;1817897;79;21156;-62
2021/01/03 08:55:31;;;;;;;27.85;17.98;;;;;;;0.39;100.00;99756.81;1817799;78;21054;-63
2021/01/03 08:58:02;;;;;;;29.87;19.12;;;;;;;0.41;100.00;99764.08;1817779;79;21363;-63
2021/01/03 09:00:36;;;;;;;28.73;18.32;;;;;;;0.41;100.00;99755.98;1818084;79;21121;-63
2021/01/03 09:03:06;;;;;;;34.08;21.23;;;;;;;0.45;100.00;99758.14;1817868;79;21025;-63
2021/01/03 09:05:36;;;;;;;30.55;19.30;;;;;;;0.48;100.00;99746.70;1818002;78;21056;-63
2021/01/03 09:08:06;;;;;;;26.37;17.27;;;;;;;0.51;100.00;99760.79;1818098;79;21068;-63
2021/01/03 09:10:38;;;;;;;34.00;20.95;;;;;;;0.59;100.00;99758.33;1786808;79;21287;-63
2021/01/03 09:13:24;;;;;;;24.80;16.62;;;;;;;0.65;100.00;99754.58;1786465;79;21060;-64
2021/01/03 09:16:01;;;;;;;25.23;16.93;;;;;;;0.70;100.00;99750.39;1817778;79;21097;-63
2021/01/03 09:18:58;;;;;;;28.00;17.60;;;;;;;0.73;100.00;99752.55;1817830;79;21116;-63
2021/01/03 09:21:27;;;;;;;39.50;23.12;;;;;;;0.77;100.00;99750.48;1818002;79;21077;-63
2021/01/03 09:24:03;;;;;;;45.80;26.52;;;;;;;0.83;100.00;99731.75;1817952;79;21131;-63
2021/01/03 09:26:40;;;;;;;56.42;30.08;;;;;;;0.84;100.00;99727.09;1817898;78;21131;-63
2021/01/03 09:29:14;;;;;;;39.80;20.97;;;;;;;0.83;100.00;99732.64;1817843;79;21049;-64
2021/01/03 09:32:06;;;;;;;28.85;17.73;;;;;;;0.86;100.00;99737.34;1817762;79;21109;-62
2021/01/03 09:34:46;;;;;;;40.85;23.87;;;;;;;0.93;100.00;99735.30;1818028;79;21065;-62
2021/01/03 09:37:28;;;;;;;32.50;20.68;;;;;;;0.98;100.00;99729.78;1786580;79;21266;-63
2021/01/03 09:40:20;;;;;;;28.77;18.77;;;;;;;0.97;100.00;99725.08;1821475;77;21156;-62
2021/01/03 09:43:05;;;;;;;28.60;18.45;;;;;;;0.94;100.00;99727.63;1821883;78;21498;-62
2021/01/03 09:45:54;;;;;;;37.17;21.75;;;;;;;0.92;100.00;99722.06;1822153;78;21116;-62
2021/01/03 09:48:31;;;;;;;34.90;20.17;;;;;;;0.91;100.00;99715.20;1821956;78;21088;-64
2021/01/03 09:51:28;;;;;;;32.93;19.62;;;;;;;0.89;100.00;99711.34;1818841;78;22305;-62
2021/01/03 09:54:02;;;;;;;38.42;20.65;;;;;;;0.89;100.00;99701.11;1821236;78;28190;-62
2021/01/03 09:56:36;;;;;;;51.37;27.75;;;;;;;0.92;100.00;99700.30;1821457;78;21593;-62
2021/01/03 09:59:17;;;;;;;38.30;22.17;;;;;;;0.95;100.00;99699.05;1821419;78;21557;-62
2021/01/03 10:01:50;;;;;;;33.20;19.30;;;;;;;0.98;100.00;99699.95;1821473;78;21042;-62
2021/01/03 10:04:28;;;;;;;37.73;21.00;;;;;;;1.02;100.00;99696.56;1821318;78;21562;-63
2021/01/03 10:07:09;;;;;;;41.28;21.60;;;;;;;1.07;100.00;99690.22;1821243;78;21041;-62
2021/01/03 10:09:37;;;;;;;32.28;19.27;;;;;;;1.10;100.00;99685.11;1805737;78;21084;-63
2021/01/03 10:12:28;;;;;;;28.92;19.32;;;;;;;1.15;100.00;99683.47;1839147;78;21585;-63
2021/01/03 10:15:25;;;;;;;29.23;17.65;;;;;;;1.20;100.00;99683.06;1841516;78;21028;-63
2021/01/03 10:18:01;;;;;;;32.17;19.70;;;;;;;1.24;100.00;99691.23;1841606;78;21422;-62
2021/01/03 10:20:37;;;;;;;32.23;19.52;;;;;;;1.28;100.00;99686.55;1841551;78;21108;-63
2021/01/03 10:23:07;;;;;;;29.82;18.87;;;;;;;1.32;100.00;99683.19;1841546;78;21061;-63
2021/01/03 10:25:35;;;;;;;42.08;22.70;;;;;;;1.33;100.00;99673.37;1841390;78;21131;-63
2021/01/03 10:28:08;;;;;;;42.80;23.92;;;;;;;1.33;100.00;99666.97;1841563;78;21112;-63
2021/01/03 10:30:38;;;;;;;39.10;20.60;;;;;;;1.36;100.00;99664.45;1841537;78;22219;-63
2021/01/03 10:33:06;;;;;;;42.05;23.45;;;;;;;1.45;100.00;99664.09;1841506;78;21466;-65
2021/01/03 10:35:34;;;;;;;39.50;21.93;;;;;;;1.50;100.00;99660.69;1841426;78;21088;-63
2021/01/03 10:38:04;;;;;;;31.05;18.70;;;;;;;1.54;100.00;99660.31;1841253;77;21124;-63
2021/01/03 10:40:32;;;;;;;32.48;19.87;;;;;;;1.56;99.66;99667.14;1841427;78;21107;-64
2021/01/03 10:43:00;;;;;;;31.82;19.65;;;;;;;1.56;99.36;99663.30;1841448;78;21188;-63
2021/01/03 10:45:28;;;;;;;32.00;19.52;;;;;;;1.58;99.49;99656.91;1841372;77;21390;-63
2021/01/03 10:47:56;;;;;;;28.27;17.07;;;;;;;1.59;99.42;99661.20;1839305;78;21168;-63
2021/01/03 10:50:24;;;;;;;27.93;18.73;;;;;;;1.62;99.26;99661.22;1840935;78;21092;-63
2021/01/03 10:52:52;;;;;;;33.02;20.45;;;;;;;1.62;99.12;99665.06;1841428;78;21120;-63
2021/01/03 10:55:22;;;;;;;30.40;18.80;;;;;;;1.62;98.93;99658.23;1841179;78;21100;-63
2021/01/03 10:57:51;;;;;;;26.42;17.55;;;;;;;1.65;99.02;99652.26;1841224;78;21079;-63
2021/01/03 11:00:20;;;;;;;32.05;19.90;;;;;;;1.69;98.82;99650.59;1841251;78;21040;-63
2021/01/03 11:02:47;;;;;;;39.23;23.10;;;;;;;1.69;98.66;99651.88;1841294;77;21056;-63
2021/01/03 11:05:17;;;;;;;27.77;18.55;;;;;;;1.67;98.58;99649.30;1841136;78;21097;-63
2021/01/03 11:07:45;;;;;;;30.08;18.87;;;;;;;1.67;98.42;99659.55;1841490;78;22224;-63
2021/01/03 11:10:13;;;;;;;30.97;19.60;;;;;;;1.70;98.67;99651.02;1841238;78;21112;-64
2021/01/03 11:12:41;;;;;;;37.03;22.60;;;;;;;1.76;98.54;99646.80;1830195;78;21155;-62
2021/01/03 11:15:11;;;;;;;75.62;37.73;;;;;;;1.80;98.53;99639.54;1829914;78;21149;-66
2021/01/03 11:17:41;;;;;;;39.35;23.15;;;;;;;1.85;98.52;99647.27;1826110;78;21179;-63
2021/01/03 11:20:10;;;;;;;33.53;21.77;;;;;;;1.90;98.38;99640.05;1802395;78;21246;-62
2021/01/03 11:22:38;;;;;;;32.88;20.62;;;;;;;1.94;98.02;99643.05;1830147;78;21096;-62
2021/01/03 11:25:09;;;;;;;43.48;23.65;;;;;;;1.94;97.70;99646.03;1830134;78;21041;-62
2021/01/03 11:27:38;;;;;;;57.43;28.02;;;;;;;1.95;97.73;99637.48;1830414;78;21060;-62
2021/01/03 11:30:08;;;;;;;33.88;20.00;;;;;;;1.97;97.46;99651.63;1830241;78;21144;-62
2021/01/03 11:32:36;;;;;;;32.28;20.20;;;;;;;1.94;97.12;99658.42;1830087;78;21354;-63
2021/01/03 11:35:07;;;;;;;28.23;18.12;;;;;;;1.95;97.08;99662.70;1830231;78;21131;-63
2021/01/03 11:37:35;;;;;;;26.27;18.57;;;;;;;1.97;97.12;99657.61;1830246;78;21147;-63
2021/01/03 11:40:05;;;;;;;26.33;18.42;;;;;;;2.01;97.03;99663.59;1830281;78;21109;-62
2021/01/03 11:42:36;;;;;;;28.17;18.90;;;;;;;2.03;97.00;99659.33;1829990;78;21156;-61
2021/01/03 11:45:09;;;;;;;31.40;19.00;;;;;;;2.06;97.01;99653.80;1830360;78;22237;-62
2021/01/03 11:47:36;;;;;;;32.70;21.15;;;;;;;2.12;96.80;99652.98;1830201;78;21080;-62
2021/01/03 11:50:08;;;;;;;28.32;19.70;;;;;;;2.13;96.47;99661.96;1830321;78;21084;-62
2021/01/03 11:52:36;;;;;;;26.10;18.30;;;;;;;2.13;96.48;99660.68;1830427;78;21541;-62